Time;durP1;ratioP1;P1;durP2;ratioP2;P2;SDS_P1;SDS_P2;PMS_P1;PMS_P2;Temp;Humidity;BMP_temperature;BMP_pressure;BME280_temperature;BME280_humidity;BME280_pressure;Samples;Min_cycle;Max_cycle;Signal;HPM_P1;HPM_P2
2023/03/27 00:00:26;;;;;;;0.50;0.47;;;11.80;99.90;;;;;;4979189;28;20235;-94
2023/03/27 00:02:56;;;;;;;1.63;0.50;;;11.60;99.90;;;;;;4983926;28;20214;-95
2023/03/27 00:05:30;;;;;;;0.40;0.40;;;11.20;99.90;;;;;;4987184;28;20242;-94
2023/03/27 00:08:00;;;;;;;1.27;0.40;;;11.00;99.90;;;;;;4996635;28;20203;-95
2023/03/27 00:10:31;;;;;;;1.57;0.60;;;11.30;99.90;;;;;;4997891;28;20242;-95
2023/03/27 00:13:02;;;;;;;0.87;0.47;;;11.00;99.90;;;;;;4998160;28;20199;-95
2023/03/27 00:15:35;;;;;;;0.63;0.60;;;11.00;99.90;;;;;;4997588;28;20230;-94
2023/03/27 00:18:06;;;;;;;0.43;0.40;;;11.00;99.90;;;;;;4996152;28;20210;-92
2023/03/27 00:20:41;;;;;;;0.80;0.60;;;11.10;99.90;;;;;;4993844;28;20250;-94
2023/03/27 00:23:12;;;;;;;1.33;0.30;;;11.00;99.90;;;;;;4980843;28;20206;-93
2023/03/27 00:25:43;;;;;;;1.87;0.73;;;10.90;99.90;;;;;;4981034;28;20210;-93
2023/03/27 00:28:14;;;;;;;1.63;0.70;;;10.60;99.90;;;;;;4977894;28;20206;-94
2023/03/27 00:30:45;;;;;;;1.10;0.70;;;10.70;99.90;;;;;;4962789;28;20259;-94
2023/03/27 00:33:16;;;;;;;0.67;0.53;;;10.80;99.90;;;;;;4959348;28;20207;-92
2023/03/27 00:35:49;;;;;;;0.80;0.40;;;10.60;99.90;;;;;;4958619;28;20215;-92
2023/03/27 00:38:21;;;;;;;0.60;0.60;;;10.70;99.90;;;;;;4957514;28;20211;-92
2023/03/27 00:40:54;;;;;;;0.47;0.40;;;10.70;99.90;;;;;;4958216;28;20772;-92
2023/03/27 00:43:27;;;;;;;1.30;0.40;;;10.80;99.90;;;;;;4959760;28;20290;-92
2023/03/27 00:46:01;;;;;;;1.43;0.63;;;10.80;99.90;;;;;;4958404;28;20223;-92
2023/03/27 00:48:36;;;;;;;0.60;0.60;;;10.80;99.90;;;;;;4957996;28;20641;-92
2023/03/27 00:51:09;;;;;;;0.80;0.60;;;10.80;99.90;;;;;;4970179;28;20234;-91
2023/03/27 00:53:41;;;;;;;0.60;0.50;;;10.60;99.90;;;;;;4977114;28;20227;-92
2023/03/27 00:56:14;;;;;;;1.03;0.70;;;10.40;99.90;;;;;;4973478;28;20223;-91
2023/03/27 00:58:47;;;;;;;0.70;0.70;;;10.40;99.90;;;;;;4976543;28;20207;-91
2023/03/27 01:01:22;;;;;;;1.27;0.73;;;10.50;99.90;;;;;;4974550;28;20290;-91
2023/03/27 01:03:56;;;;;;;0.73;0.60;;;10.50;99.90;;;;;;4978022;28;20225;-94
2023/03/27 01:06:31;;;;;;;0.87;0.70;;;10.40;99.90;;;;;;4979563;28;20235;-95
2023/03/27 01:09:03;;;;;;;1.27;0.60;;;10.40;99.90;;;;;;4979650;28;20211;-93
2023/03/27 01:11:47;;;;;;;1.70;0.60;;;10.40;99.90;;;;;;4976253;28;20650;-93
2023/03/27 01:14:27;;;;;;;0.70;0.50;;;10.00;99.90;;;;;;4959938;28;20204;-94
2023/03/27 01:17:12;;;;;;;0.77;0.47;;;9.90;99.90;;;;;;4956427;28;20215;-92
2023/03/27 01:20:15;;;;;;;0.60;0.50;;;9.70;99.90;;;;;;4959744;28;20297;-91
2023/03/27 01:23:27;;;;;;;1.60;0.50;;;9.50;99.90;;;;;;4975773;28;20980;-92
2023/03/27 01:26:56;;;;;;;0.43;0.40;;;9.50;99.90;;;;;;4960582;28;20203;-92
2023/03/27 01:29:47;;;;;;;0.30;0.30;;;9.30;99.90;;;;;;4926627;29;20295;-92
2023/03/27 01:32:51;;;;;;;0.20;0.20;;;9.10;99.90;;;;;;4918230;29;20201;-93
2023/03/27 01:35:45;;;;;;;0.93;0.40;;;9.30;99.90;;;;;;4958871;28;20239;-94
2023/03/27 01:38:42;;;;;;;0.47;0.47;;;9.20;99.90;;;;;;4968022;28;20689;-93
2023/03/27 01:41:21;;;;;;;0.30;0.30;;;9.40;99.90;;;;;;4975390;28;20242;-91
2023/03/27 01:43:57;;;;;;;0.43;0.43;;;9.40;99.90;;;;;;4978050;28;20234;-92
2023/03/27 01:46:35;;;;;;;0.33;0.30;;;9.30;99.90;;;;;;4975242;28;20202;-92
2023/03/27 01:49:11;;;;;;;0.30;0.30;;;9.30;99.90;;;;;;4973262;28;20211;-93
2023/03/27 01:51:46;;;;;;;0.30;0.30;;;9.00;99.90;;;;;;4973592;28;20218;-93
2023/03/27 01:54:23;;;;;;;0.50;0.30;;;8.90;99.90;;;;;;4975681;28;20207;-94
2023/03/27 01:57:02;;;;;;;0.50;0.40;;;8.90;99.90;;;;;;4970142;28;20238;-93
2023/03/27 01:59:39;;;;;;;0.53;0.30;;;8.80;99.90;;;;;;4966285;28;20214;-93
2023/03/27 02:02:14;;;;;;;0.30;0.30;;;8.80;99.90;;;;;;4978081;28;20218;-92
2023/03/27 02:04:49;;;;;;;0.43;0.40;;;8.70;99.90;;;;;;4969868;28;20199;-91
2023/03/27 02:07:26;;;;;;;0.57;0.40;;;8.50;99.90;;;;;;4971957;28;20581;-96
2023/03/27 02:10:02;;;;;;;0.97;0.40;;;8.40;99.90;;;;;;4976121;28;20213;-95
2023/03/27 02:12:38;;;;;;;0.97;0.30;;;8.30;99.90;;;;;;4965911;28;20211;-96
2023/03/27 02:15:13;;;;;;;0.40;0.40;;;8.10;99.90;;;;;;4963486;28;20240;-96
2023/03/27 02:18:03;;;;;;;0.50;0.50;;;7.80;99.90;;;;;;4974806;28;20250;-94
2023/03/27 02:20:35;;;;;;;0.67;0.43;;;7.70;99.90;;;;;;4965041;28;20251;-95
2023/03/27 02:23:07;;;;;;;0.60;0.40;;;7.70;99.90;;;;;;4965194;28;20213;-93
2023/03/27 02:25:41;;;;;;;2.47;0.50;;;7.60;99.90;;;;;;4978409;28;20654;-96
2023/03/27 02:28:42;;;;;;;3.63;0.50;;;7.50;99.90;;;;;;4978232;28;20203;-96
2023/03/27 02:31:34;;;;;;;0.30;0.30;;;7.40;99.90;;;;;;4965226;28;20269;-93
2023/03/27 02:34:49;;;;;;;0.80;0.50;;;7.30;99.90;;;;;;4634286;28;10000188;-94
2023/03/27 02:37:29;;;;;;;1.10;0.40;;;7.20;99.90;;;;;;4977137;28;20578;-92
2023/03/27 02:40:12;;;;;;;2.07;0.50;;;7.10;99.90;;;;;;4972355;28;20202;-91
2023/03/27 02:42:53;;;;;;;0.80;0.70;;;7.10;99.90;;;;;;4978101;28;20203;-92
2023/03/27 02:45:31;;;;;;;0.70;0.53;;;7.00;99.90;;;;;;4976935;28;20215;-93
2023/03/27 02:48:09;;;;;;;1.43;0.40;;;6.90;99.90;;;;;;4976071;28;20735;-94
2023/03/27 02:50:46;;;;;;;0.40;0.40;;;6.80;99.90;;;;;;4973580;28;20202;-94
2023/03/27 02:53:22;;;;;;;0.50;0.40;;;6.90;99.90;;;;;;4977249;28;20261;-93
2023/03/27 02:55:56;;;;;;;0.60;0.50;;;6.80;99.90;;;;;;4977978;28;20654;-96
2023/03/27 02:58:36;;;;;;;0.60;0.40;;;6.70;99.90;;;;;;4981537;28;20206;-91
2023/03/27 03:01:16;;;;;;;0.40;0.40;;;6.60;99.90;;;;;;4985132;28;20250;-94
2023/03/27 03:03:53;;;;;;;0.40;0.40;;;6.50;99.90;;;;;;4986179;28;20222;-93
2023/03/27 03:06:28;;;;;;;0.40;0.40;;;6.40;99.90;;;;;;4980188;28;20226;-94
2023/03/27 03:09:03;;;;;;;0.50;0.33;;;6.30;99.90;;;;;;4969692;28;20207;-91
2023/03/27 03:11:37;;;;;;;0.60;0.50;;;6.30;99.90;;;;;;4974519;28;20209;-90
2023/03/27 03:14:10;;;;;;;0.77;0.43;;;6.20;99.90;;;;;;4971054;28;20210;-93
2023/03/27 03:16:46;;;;;;;0.50;0.40;;;6.10;99.90;;;;;;4975794;28;20210;-93
2023/03/27 03:19:18;;;;;;;0.93;0.40;;;6.10;99.90;;;;;;4970927;28;20203;-94
2023/03/27 03:21:50;;;;;;;0.50;0.40;;;6.00;99.90;;;;;;4972237;28;20239;-93
2023/03/27 03:24:26;;;;;;;0.40;0.40;;;5.90;99.90;;;;;;4977713;28;20211;-93
2023/03/27 03:26:58;;;;;;;0.60;0.60;;;5.80;99.90;;;;;;4986174;28;20209;-94
2023/03/27 03:29:35;;;;;;;1.57;0.50;;;5.80;99.90;;;;;;4973807;28;20211;-92
2023/03/27 03:32:10;;;;;;;0.50;0.40;;;5.70;99.90;;;;;;4967665;28;20257;-95
2023/03/27 03:34:45;;;;;;;0.60;0.50;;;5.70;99.90;;;;;;4972511;28;20219;-92
2023/03/27 03:37:17;;;;;;;0.60;0.57;;;5.60;99.90;;;;;;4972334;28;20918;-94
2023/03/27 03:39:50;;;;;;;0.40;0.40;;;5.50;99.90;;;;;;4974390;28;20688;-93
2023/03/27 03:42:23;;;;;;;0.57;0.57;;;5.50;99.90;;;;;;4966478;28;20241;-93
2023/03/27 03:44:55;;;;;;;0.83;0.50;;;5.40;99.90;;;;;;4973712;28;20269;-91
2023/03/27 03:47:29;;;;;;;1.43;0.60;;;5.40;99.90;;;;;;4970449;28;20665;-93
2023/03/27 03:50:00;;;;;;;2.27;0.60;;;5.40;99.90;;;;;;4965155;28;20722;-90
2023/03/27 03:52:32;;;;;;;2.20;0.57;;;5.40;99.90;;;;;;4966875;28;20207;-91
2023/03/27 03:55:06;;;;;;;0.50;0.50;;;5.30;99.90;;;;;;4972166;28;20203;-89
2023/03/27 03:57:37;;;;;;;2.00;0.40;;;5.30;99.90;;;;;;4971884;28;20988;-90
2023/03/27 04:00:11;;;;;;;0.70;0.70;;;5.20;99.90;;;;;;4973413;28;20211;-91
2023/03/27 04:02:45;;;;;;;2.67;1.23;;;5.20;99.90;;;;;;4974680;28;20237;-91
2023/03/27 04:05:16;;;;;;;1.70;1.10;;;5.10;99.90;;;;;;4974779;28;20226;-91
2023/03/27 04:07:48;;;;;;;1.67;1.10;;;5.10;99.90;;;;;;4970893;28;20239;-92
2023/03/27 04:10:20;;;;;;;0.97;0.60;;;5.00;99.90;;;;;;4968839;28;20283;-92
2023/03/27 04:12:53;;;;;;;3.40;0.80;;;5.00;99.90;;;;;;4969682;28;20252;-92
2023/03/27 04:15:27;;;;;;;1.93;0.80;;;5.00;99.90;;;;;;4977182;28;20199;-93
2023/03/27 04:18:03;;;;;;;0.87;0.70;;;5.00;99.90;;;;;;4973322;28;20219;-93
2023/03/27 04:20:35;;;;;;;1.07;0.70;;;4.90;99.90;;;;;;4975701;28;20214;-95
2023/03/27 04:23:07;;;;;;;1.63;0.90;;;4.90;99.90;;;;;;4976683;28;20552;-94
2023/03/27 04:25:40;;;;;;;1.83;0.80;;;4.80;99.90;;;;;;4968436;28;20650;-96
2023/03/27 04:28:15;;;;;;;1.23;1.00;;;4.80;99.90;;;;;;4967446;28;20300;-95
2023/03/27 04:30:49;;;;;;;2.43;1.07;;;4.70;99.90;;;;;;4969610;28;20206;-94
2023/03/27 04:33:23;;;;;;;3.60;1.47;;;4.80;99.90;;;;;;4975281;28;20273;-94
2023/03/27 04:36:01;;;;;;;1.87;0.97;;;4.70;99.90;;;;;;4959939;28;20229;-95
2023/03/27 04:38:38;;;;;;;1.83;1.00;;;4.60;99.90;;;;;;4963465;28;20348;-95
2023/03/27 04:41:10;;;;;;;0.93;0.83;;;4.60;99.90;;;;;;4978042;28;20207;-96
2023/03/27 04:43:42;;;;;;;1.07;0.90;;;4.50;99.90;;;;;;4979273;28;20267;-96
2023/03/27 04:46:13;;;;;;;1.17;0.90;;;4.50;99.90;;;;;;4976503;28;20207;-94
2023/03/27 04:48:48;;;;;;;0.80;0.80;;;4.50;99.90;;;;;;4976268;28;20309;-96
2023/03/27 04:51:25;;;;;;;1.57;0.70;;;4.50;99.90;;;;;;4973129;28;20600;-95
2023/03/27 04:53:57;;;;;;;0.70;0.67;;;4.50;99.90;;;;;;4979328;28;20218;-94
2023/03/27 04:56:29;;;;;;;2.47;0.90;;;4.50;99.90;;;;;;4971934;28;20242;-94
2023/03/27 04:59:02;;;;;;;1.23;0.80;;;4.40;99.90;;;;;;4979488;28;20215;-94
2023/03/27 05:01:33;;;;;;;1.80;0.80;;;4.40;99.90;;;;;;4972646;28;20289;-93
2023/03/27 05:04:07;;;;;;;1.13;0.80;;;4.40;99.90;;;;;;4984116;28;20215;-92
2023/03/27 05:06:39;;;;;;;2.20;1.00;;;4.30;99.90;;;;;;4995460;28;20262;-93
2023/03/27 05:09:10;;;;;;;1.13;1.00;;;4.30;99.90;;;;;;4995325;28;20266;-94
2023/03/27 05:11:43;;;;;;;1.47;0.70;;;4.30;99.90;;;;;;4983057;28;20222;-92
2023/03/27 05:14:15;;;;;;;0.83;0.80;;;4.30;99.90;;;;;;4978780;28;20218;-94
2023/03/27 05:16:48;;;;;;;1.50;0.73;;;4.30;99.90;;;;;;4977541;28;20215;-93
2023/03/27 05:19:23;;;;;;;1.00;0.90;;;4.20;99.90;;;;;;4974365;28;20298;-92
2023/03/27 05:21:56;;;;;;;1.77;0.90;;;4.30;99.90;;;;;;4972832;28;20230;-92
2023/03/27 05:24:27;;;;;;;1.83;1.00;;;4.30;99.90;;;;;;4979178;28;20222;-94
2023/03/27 05:27:00;;;;;;;1.63;0.90;;;4.20;99.90;;;;;;4979276;28;20206;-94
2023/03/27 05:29:32;;;;;;;1.50;0.90;;;4.20;99.90;;;;;;4973419;28;20242;-94
2023/03/27 05:32:16;;;;;;;1.00;0.80;;;4.20;99.90;;;;;;4960011;29;20214;-95
2023/03/27 05:34:50;;;;;;;1.10;0.90;;;4.20;99.90;;;;;;4962921;28;20859;-94
2023/03/27 05:37:22;;;;;;;1.90;0.97;;;4.10;99.90;;;;;;4963455;28;20211;-93
2023/03/27 05:39:57;;;;;;;1.93;0.77;;;4.10;99.90;;;;;;4974706;28;20194;-94
2023/03/27 05:42:29;;;;;;;1.13;0.93;;;4.00;99.90;;;;;;4979496;28;20240;-95
2023/03/27 05:45:01;;;;;;;2.00;1.03;;;4.00;99.90;;;;;;4982072;28;20191;-95
2023/03/27 05:47:35;;;;;;;1.40;1.10;;;4.00;99.90;;;;;;4994751;28;20235;-96
2023/03/27 05:50:10;;;;;;;1.67;0.90;;;4.00;99.90;;;;;;4981015;28;20211;-93
2023/03/27 05:52:42;;;;;;;1.47;0.90;;;3.90;99.90;;;;;;4979985;28;20243;-94
2023/03/27 05:55:14;;;;;;;3.37;1.03;;;3.80;99.90;;;;;;4974096;28;20215;-95
2023/03/27 05:57:46;;;;;;;4.03;1.00;;;3.90;99.90;;;;;;4960115;28;20630;-95
2023/03/27 06:00:23;;;;;;;0.80;0.80;;;3.80;99.90;;;;;;4959348;28;20227;-93
2023/03/27 06:02:56;;;;;;;2.20;1.00;;;3.70;99.90;;;;;;4958845;28;20235;-92
2023/03/27 06:05:31;;;;;;;0.90;0.90;;;3.70;99.90;;;;;;4958507;28;20207;-92
2023/03/27 06:08:03;;;;;;;1.10;0.60;;;3.60;99.90;;;;;;4958348;28;20218;-91
2023/03/27 06:10:35;;;;;;;1.27;0.90;;;3.60;99.90;;;;;;4958989;28;20239;-93
2023/03/27 06:13:08;;;;;;;1.57;0.80;;;3.60;99.90;;;;;;4967105;28;20717;-93
2023/03/27 06:15:42;;;;;;;1.47;0.70;;;3.60;99.90;;;;;;4978125;28;20262;-92
2023/03/27 06:18:14;;;;;;;1.97;0.97;;;3.50;99.90;;;;;;4979589;28;20219;-92
2023/03/27 06:20:48;;;;;;;2.43;0.90;;;3.50;99.90;;;;;;4979022;28;20578;-92
2023/03/27 06:23:19;;;;;;;0.80;0.80;;;3.50;99.90;;;;;;4971289;28;20230;-94
2023/03/27 06:25:51;;;;;;;2.57;0.90;;;3.50;99.90;;;;;;4978283;28;20265;-93
2023/03/27 06:28:24;;;;;;;0.70;0.60;;;3.40;99.90;;;;;;4972164;28;20203;-91
2023/03/27 06:30:56;;;;;;;1.83;0.80;;;3.40;99.90;;;;;;4975986;28;20203;-94
2023/03/27 06:33:30;;;;;;;1.23;0.80;;;3.40;99.90;;;;;;4981729;28;20219;-93
2023/03/27 06:36:07;;;;;;;1.53;0.90;;;3.40;99.90;;;;;;4994901;28;20198;-90
2023/03/27 06:38:39;;;;;;;1.77;1.07;;;3.40;99.90;;;;;;4982222;28;20218;-95
2023/03/27 06:41:13;;;;;;;0.90;0.80;;;3.30;99.90;;;;;;4996332;28;20218;-94
2023/03/27 06:43:45;;;;;;;1.73;0.70;;;3.30;99.90;;;;;;4985076;28;20285;-94
2023/03/27 06:46:16;;;;;;;1.43;0.90;;;3.30;99.90;;;;;;4977897;28;20210;-94
2023/03/27 06:48:49;;;;;;;4.53;0.90;;;3.30;99.90;;;;;;4976767;28;20222;-94
2023/03/27 06:51:25;;;;;;;3.87;1.70;;;3.30;99.90;;;;;;4972874;28;20214;-94
2023/03/27 06:53:58;;;;;;;1.30;1.00;;;3.30;99.90;;;;;;4978695;28;20218;-94
2023/03/27 06:56:29;;;;;;;1.83;1.20;;;3.20;99.90;;;;;;4976802;28;20265;-95
2023/03/27 06:59:01;;;;;;;3.73;1.50;;;3.20;99.90;;;;;;4976495;28;20211;-94
2023/03/27 07:01:32;;;;;;;2.33;1.80;;;3.20;99.90;;;;;;4978271;28;20199;-95
2023/03/27 07:04:05;;;;;;;2.30;1.00;;;3.10;99.90;;;;;;4977872;28;20241;-92
2023/03/27 07:06:42;;;;;;;1.13;1.03;;;3.10;99.90;;;;;;4984673;28;20202;-92
2023/03/27 07:09:14;;;;;;;1.27;1.17;;;3.10;99.90;;;;;;4986072;28;20323;-92
2023/03/27 07:11:46;;;;;;;2.87;1.53;;;3.00;99.90;;;;;;4992951;28;20243;-93
2023/03/27 07:14:17;;;;;;;4.63;2.30;;;3.00;99.90;;;;;;4991121;28;20215;-93
2023/03/27 07:16:49;;;;;;;9.20;2.80;;;3.00;99.90;;;;;;4977262;28;20215;-92
2023/03/27 07:19:21;;;;;;;6.13;2.20;;;3.00;99.90;;;;;;4977601;28;20266;-92
2023/03/27 07:21:55;;;;;;;1.10;0.90;;;2.90;99.90;;;;;;4976494;28;20211;-92
2023/03/27 07:24:27;;;;;;;1.57;1.20;;;2.90;99.90;;;;;;4977216;28;20234;-92
2023/03/27 07:27:00;;;;;;;2.30;1.00;;;2.90;99.90;;;;;;4977059;28;20674;-92
2023/03/27 07:29:32;;;;;;;2.67;0.93;;;2.80;99.90;;;;;;4969422;28;20220;-92
2023/03/27 07:32:03;;;;;;;0.80;0.80;;;2.80;99.90;;;;;;4957829;28;20262;-94
2023/03/27 07:34:39;;;;;;;0.83;0.73;;;2.80;99.90;;;;;;4957539;28;20203;-95
2023/03/27 07:37:13;;;;;;;0.97;0.87;;;2.70;99.90;;;;;;4961332;28;20210;-94
2023/03/27 07:39:45;;;;;;;1.40;1.03;;;2.80;99.90;;;;;;4976535;28;20231;-95
2023/03/27 07:42:18;;;;;;;1.23;0.90;;;2.70;99.90;;;;;;4976918;28;20246;-94
2023/03/27 07:44:49;;;;;;;1.30;0.73;;;2.70;99.90;;;;;;4976177;28;20245;-94
2023/03/27 07:47:24;;;;;;;1.30;0.90;;;2.60;99.90;;;;;;4975367;28;20206;-95
2023/03/27 07:49:56;;;;;;;2.27;0.97;;;2.60;99.90;;;;;;4977118;28;20666;-94
2023/03/27 07:52:33;;;;;;;0.90;0.80;;;2.60;99.90;;;;;;4977585;28;20211;-95
2023/03/27 07:55:05;;;;;;;0.70;0.70;;;2.50;99.90;;;;;;4980941;28;20207;-93
2023/03/27 07:57:41;;;;;;;0.80;0.77;;;2.50;99.90;;;;;;4980256;28;20202;-94
2023/03/27 08:00:21;;;;;;;3.43;0.90;;;2.50;99.90;;;;;;4976564;28;20673;-95
2023/03/27 08:02:53;;;;;;;1.53;0.90;;;2.50;99.90;;;;;;4976576;28;20218;-94
2023/03/27 08:05:25;;;;;;;1.27;0.90;;;2.50;99.90;;;;;;4977052;28;20642;-95
2023/03/27 08:07:59;;;;;;;1.00;0.60;;;2.50;99.90;;;;;;4979389;28;20207;-94
2023/03/27 08:10:31;;;;;;;1.83;0.77;;;2.40;99.90;;;;;;4976731;28;20207;-94
2023/03/27 08:13:03;;;;;;;0.97;0.70;;;2.40;99.90;;;;;;4976393;28;20207;-93
2023/03/27 08:15:35;;;;;;;2.00;1.07;;;2.40;99.90;;;;;;4976266;28;20211;-94
2023/03/27 08:18:07;;;;;;;1.40;0.97;;;2.30;99.90;;;;;;4977351;28;20242;-94
2023/03/27 08:20:41;;;;;;;1.43;0.90;;;2.30;99.90;;;;;;4633269;28;10000230;-93
2023/03/27 08:23:16;;;;;;;1.20;0.87;;;2.20;99.90;;;;;;4980325;28;20235;-93
2023/03/27 08:25:53;;;;;;;0.70;0.70;;;2.30;99.90;;;;;;4979485;28;20285;-93
2023/03/27 08:28:26;;;;;;;2.10;0.90;;;2.20;99.90;;;;;;4979984;28;20210;-94
2023/03/27 08:30:58;;;;;;;2.10;0.90;;;2.20;99.90;;;;;;4978966;28;20273;-94
2023/03/27 08:33:32;;;;;;;1.87;1.17;;;2.20;99.90;;;;;;4979223;28;20209;-93
2023/03/27 08:36:04;;;;;;;1.33;0.73;;;2.20;99.90;;;;;;4984340;28;20207;-93
2023/03/27 08:38:42;;;;;;;3.23;0.93;;;2.10;99.90;;;;;;4983846;28;20230;-93
2023/03/27 08:41:29;;;;;;;1.50;0.80;;;2.10;99.90;;;;;;4982924;28;20211;-94
2023/03/27 08:44:05;;;;;;;1.57;1.00;;;2.10;99.90;;;;;;4984001;28;20258;-94
2023/03/27 08:46:41;;;;;;;1.57;1.00;;;2.10;99.90;;;;;;4967608;28;20261;-95
2023/03/27 08:49:17;;;;;;;1.20;0.97;;;2.10;99.90;;;;;;4981331;28;20285;-95
2023/03/27 08:51:53;;;;;;;1.43;0.90;;;2.00;99.90;;;;;;4982723;28;20230;-94
2023/03/27 08:54:29;;;;;;;1.30;0.90;;;2.10;99.90;;;;;;4984172;28;20245;-95
2023/03/27 08:57:02;;;;;;;1.97;0.90;;;2.10;99.90;;;;;;4982824;28;20214;-94
2023/03/27 08:59:36;;;;;;;1.50;0.97;;;2.10;99.90;;;;;;4982449;28;20726;-94
2023/03/27 09:02:17;;;;;;;1.70;1.00;;;2.20;99.90;;;;;;4981092;28;20207;-94
2023/03/27 09:04:55;;;;;;;1.20;0.90;;;2.20;99.90;;;;;;4982400;28;20240;-95
2023/03/27 09:07:34;;;;;;;0.70;0.70;;;2.30;99.90;;;;;;4982478;28;20214;-95
2023/03/27 09:10:18;;;;;;;2.33;0.90;;;2.40;99.90;;;;;;4995349;28;20198;-96
2023/03/27 09:13:04;;;;;;;2.03;1.07;;;2.40;99.90;;;;;;5000144;28;20278;-96
2023/03/27 09:15:41;;;;;;;2.20;1.00;;;2.40;99.90;;;;;;4993194;28;20207;-94
2023/03/27 09:18:19;;;;;;;1.10;1.00;;;2.50;99.90;;;;;;4986057;28;20218;-92
2023/03/27 09:20:55;;;;;;;1.13;1.00;;;2.50;99.90;;;;;;4980094;28;20255;-93
2023/03/27 09:23:32;;;;;;;2.90;1.13;;;2.50;99.90;;;;;;4979569;28;20207;-94
2023/03/27 09:26:11;;;;;;;0.83;0.83;;;2.50;99.90;;;;;;4980548;28;20230;-93
2023/03/27 09:28:52;;;;;;;3.93;1.17;;;2.50;99.90;;;;;;4978388;28;20238;-93
2023/03/27 09:31:28;;;;;;;1.83;1.00;;;2.50;99.90;;;;;;4975946;28;20242;-92
2023/03/27 09:34:04;;;;;;;3.13;1.00;;;2.50;99.90;;;;;;4978083;28;20253;-93
2023/03/27 09:36:37;;;;;;;2.20;0.87;;;2.50;99.90;;;;;;4979231;28;20209;-94
2023/03/27 09:39:14;;;;;;;1.93;0.87;;;2.50;99.90;;;;;;4977101;28;20203;-93
2023/03/27 09:41:55;;;;;;;2.70;1.10;;;2.50;99.90;;;;;;4986450;28;20213;-92
2023/03/27 09:44:31;;;;;;;1.17;1.03;;;2.60;99.90;;;;;;4985348;28;20245;-94
2023/03/27 09:47:13;;;;;;;2.40;1.10;;;2.70;99.90;;;;;;4977017;28;20216;-94
2023/03/27 09:49:50;;;;;;;5.87;1.10;;;2.70;99.90;;;;;;4980088;28;20207;-94
2023/03/27 09:52:39;;;;;;;0.97;0.80;;;2.70;99.90;;;;;;4979753;28;20221;-94
2023/03/27 09:55:26;;;;;;;2.67;0.87;;;2.70;99.90;;;;;;4960379;28;20204;-95
2023/03/27 09:58:12;;;;;;;2.30;0.90;;;2.70;99.90;;;;;;4958356;28;20267;-95
2023/03/27 10:00:48;;;;;;;0.90;0.70;;;2.80;99.90;;;;;;4971922;28;20817;-94
2023/03/27 10:03:23;;;;;;;0.73;0.73;;;2.80;99.90;;;;;;4977727;28;20906;-95
2023/03/27 10:06:08;;;;;;;1.47;0.90;;;2.80;99.90;;;;;;4978873;28;20241;-93
2023/03/27 10:08:48;;;;;;;2.10;1.00;;;2.70;99.90;;;;;;4977777;28;20217;-92
2023/03/27 10:11:23;;;;;;;1.00;0.90;;;2.70;99.90;;;;;;4981993;28;20261;-94
2023/03/27 10:13:59;;;;;;;1.10;0.87;;;2.70;99.90;;;;;;4978155;28;20218;-94
2023/03/27 10:16:39;;;;;;;2.00;1.30;;;2.70;99.90;;;;;;4979682;28;20576;-95
2023/03/27 10:19:24;;;;;;;1.20;0.87;;;2.70;99.90;;;;;;4978879;28;20622;-93
2023/03/27 10:22:02;;;;;;;2.37;0.83;;;2.60;99.90;;;;;;4961544;28;20207;-94
2023/03/27 10:24:38;;;;;;;1.90;1.40;;;2.50;99.90;;;;;;4977839;28;20231;-93
2023/03/27 10:27:22;;;;;;;3.03;1.00;;;2.50;99.90;;;;;;4977829;28;20207;-93
2023/03/27 10:29:56;;;;;;;2.63;0.80;;;2.50;99.90;;;;;;4978452;28;20210;-92
2023/03/27 10:32:46;;;;;;;1.53;0.80;;;2.40;99.90;;;;;;4977494;28;20581;-93
2023/03/27 10:35:29;;;;;;;1.60;0.83;;;2.30;99.90;;;;;;4977672;28;20273;-93
2023/03/27 10:38:05;;;;;;;2.37;1.07;;;2.30;99.90;;;;;;4957454;28;20215;-92
2023/03/27 10:40:39;;;;;;;1.30;0.90;;;2.20;99.90;;;;;;4973073;28;20202;-94
2023/03/27 10:43:13;;;;;;;1.27;1.00;;;2.20;99.90;;;;;;4977755;28;20208;-93
2023/03/27 10:45:52;;;;;;;2.70;1.13;;;2.10;99.90;;;;;;4976195;28;20289;-92
2023/03/27 10:48:38;;;;;;;2.13;1.03;;;2.00;99.90;;;;;;4976443;28;20215;-94
2023/03/27 10:51:23;;;;;;;2.23;1.20;;;2.00;99.90;;;;;;4976845;28;20238;-94
2023/03/27 10:54:16;;;;;;;2.87;0.97;;;1.90;99.90;;;;;;4977871;28;20266;-95
2023/03/27 10:56:58;;;;;;;1.13;0.80;;;1.90;99.90;;;;;;4975584;28;20214;-94
2023/03/27 10:59:35;;;;;;;1.57;0.97;;;1.90;99.90;;;;;;4976946;28;20207;-94
2023/03/27 11:02:33;;;;;;;1.27;1.13;;;1.90;99.90;;;;;;4977624;28;20207;-93
2023/03/27 11:05:08;;;;;;;1.83;1.13;;;1.80;99.90;;;;;;4979932;28;20254;-96
2023/03/27 11:07:45;;;;;;;1.90;1.30;;;1.80;99.90;;;;;;4979984;28;20206;-95
2023/03/27 11:10:22;;;;;;;2.27;1.53;;;1.70;99.90;;;;;;4981367;28;20257;-94
2023/03/27 11:13:00;;;;;;;1.63;1.47;;;1.60;99.90;;;;;;4984341;28;20218;-95
2023/03/27 11:15:40;;;;;;;2.20;1.30;;;1.60;99.90;;;;;;4990573;28;20194;-92
2023/03/27 11:18:20;;;;;;;1.67;1.27;;;1.60;99.90;;;;;;4993014;28;20210;-95
2023/03/27 11:20:58;;;;;;;2.77;1.53;;;1.50;99.90;;;;;;4990436;28;20736;-96
2023/03/27 11:23:35;;;;;;;2.03;1.40;;;1.50;99.90;;;;;;4975661;28;20212;-94
2023/03/27 11:26:09;;;;;;;2.73;1.50;;;1.50;99.90;;;;;;4987210;28;20215;-93
2023/03/27 11:28:45;;;;;;;1.63;1.10;;;1.50;99.90;;;;;;4980319;28;20254;-92
2023/03/27 11:31:30;;;;;;;2.57;1.10;;;1.50;99.90;;;;;;4996670;28;20206;-93
2023/03/27 11:34:06;;;;;;;2.30;1.27;;;1.50;99.90;;;;;;4996238;28;20258;-94
2023/03/27 11:36:50;;;;;;;1.20;1.07;;;1.50;99.90;;;;;;4996227;28;20217;-93
2023/03/27 11:39:31;;;;;;;2.57;1.40;;;1.50;99.90;;;;;;4987351;28;20203;-93
2023/03/27 11:42:06;;;;;;;2.20;1.17;;;1.40;99.90;;;;;;4981360;28;20226;-93
2023/03/27 11:44:38;;;;;;;1.90;1.30;;;1.40;99.90;;;;;;4978206;28;20286;-92
2023/03/27 11:47:25;;;;;;;1.20;1.10;;;1.40;99.90;;;;;;4970212;28;20227;-93
2023/03/27 11:50:20;;;;;;;2.40;1.20;;;1.40;99.90;;;;;;4958088;28;20627;-92
2023/03/27 11:53:11;;;;;;;1.30;1.00;;;1.30;99.90;;;;;;4957221;28;20644;-93
2023/03/27 11:55:58;;;;;;;1.47;1.10;;;1.30;99.90;;;;;;4958279;28;20207;-95
2023/03/27 11:58:35;;;;;;;1.77;1.30;;;1.30;99.90;;;;;;4978268;28;20622;-94
2023/03/27 12:01:18;;;;;;;2.40;1.10;;;1.30;99.90;;;;;;4978569;28;20206;-94
2023/03/27 12:04:16;;;;;;;1.57;1.20;;;1.20;99.90;;;;;;4981552;28;20214;-95
2023/03/27 12:06:56;;;;;;;1.67;1.10;;;1.20;99.90;;;;;;4984151;28;20302;-94
2023/03/27 12:09:46;;;;;;;2.20;0.97;;;1.20;99.90;;;;;;4980350;28;20195;-94
2023/03/27 12:12:44;;;;;;;1.10;1.00;;;1.20;99.90;;;;;;4967878;28;20211;-94
2023/03/27 12:15:47;;;;;;;1.73;0.90;;;1.20;99.90;;;;;;4961699;28;20590;-93
2023/03/27 12:18:32;;;;;;;1.60;0.93;;;1.20;99.90;;;;;;4965268;28;20214;-93
2023/03/27 12:21:17;;;;;;;1.57;1.10;;;1.20;99.90;;;;;;4979788;28;20218;-93
2023/03/27 12:24:04;;;;;;;1.83;1.20;;;1.20;99.90;;;;;;4978105;28;20215;-93
2023/03/27 12:26:52;;;;;;;0.90;0.83;;;1.10;99.90;;;;;;4978486;28;20294;-95
2023/03/27 12:29:43;;;;;;;1.70;1.00;;;1.10;99.90;;;;;;4974561;28;20289;-94
2023/03/27 12:32:25;;;;;;;2.40;0.97;;;1.10;99.90;;;;;;4970149;28;20207;-93
2023/03/27 12:35:02;;;;;;;1.67;0.90;;;1.10;99.90;;;;;;4976856;28;20235;-94
2023/03/27 12:37:40;;;;;;;1.67;1.00;;;1.00;99.90;;;;;;4977119;28;20213;-92
2023/03/27 12:40:29;;;;;;;1.00;0.90;;;1.00;99.90;;;;;;4978751;28;20205;-94
2023/03/27 12:43:25;;;;;;;1.13;0.93;;;1.00;99.90;;;;;;4978411;28;20215;-93
2023/03/27 12:46:14;;;;;;;1.43;0.90;;;1.00;99.90;;;;;;4978494;28;21799;-94
2023/03/27 12:48:56;;;;;;;1.33;0.90;;;1.00;99.90;;;;;;4977061;28;20195;-93
2023/03/27 12:51:46;;;;;;;1.73;1.27;;;1.00;99.90;;;;;;4979045;28;20214;-91
2023/03/27 12:54:30;;;;;;;3.40;1.00;;;0.90;99.90;;;;;;4959342;28;20204;-94
2023/03/27 12:57:07;;;;;;;1.80;1.03;;;0.90;99.90;;;;;;4959042;28;20204;-93
2023/03/27 12:59:41;;;;;;;2.77;0.87;;;0.80;99.90;;;;;;4964123;28;20200;-95
2023/03/27 13:03:01;;;;;;;0.70;0.70;;;0.80;99.90;;;;;;4978215;28;20205;-93
2023/03/27 13:06:04;;;;;;;2.20;0.97;;;0.80;99.90;;;;;;4978132;28;20239;-94
2023/03/27 13:09:14;;;;;;;1.30;0.70;;;0.80;99.90;;;;;;4978045;28;20202;-93
2023/03/27 13:12:14;;;;;;;1.17;0.80;;;0.80;99.90;;;;;;4972238;28;20238;-95
2023/03/27 13:15:14;;;;;;;0.80;0.63;;;0.80;99.90;;;;;;4983142;28;20234;-94
2023/03/27 13:18:08;;;;;;;0.70;0.70;;;0.80;99.90;;;;;;4982071;28;20218;-95
2023/03/27 13:20:47;;;;;;;0.87;0.67;;;0.70;99.90;;;;;;4982454;28;20214;-93
2023/03/27 13:23:34;;;;;;;1.10;1.00;;;0.70;99.90;;;;;;4980787;28;20207;-94
2023/03/27 13:26:20;;;;;;;1.40;0.90;;;0.70;99.90;;;;;;4982204;28;20626;-93
2023/03/27 13:28:55;;;;;;;1.20;0.87;;;0.70;99.90;;;;;;4991571;28;20281;-94
2023/03/27 13:32:00;;;;;;;1.93;1.00;;;0.70;99.90;;;;;;4985079;28;20230;-93
2023/03/27 13:34:41;;;;;;;2.33;0.90;;;0.60;99.90;;;;;;4973658;28;20210;-94
2023/03/27 13:40:38;;;;;;;0.60;0.60;;;0.50;99.90;;;;;;4977157;28;20211;-92
2023/03/27 13:43:24;;;;;;;1.17;0.80;;;0.50;99.90;;;;;;4982761;28;20264;-94
2023/03/27 13:45:57;;;;;;;2.37;0.70;;;0.50;99.90;;;;;;4969050;28;20266;-94
2023/03/27 13:49:00;;;;;;;1.83;1.00;;;0.50;99.90;;;;;;4982862;28;20211;-94
2023/03/27 13:52:16;;;;;;;1.23;0.70;;;0.50;99.90;;;;;;4964400;28;20208;-95
2023/03/27 13:55:17;;;;;;;1.53;0.90;;;0.50;99.90;;;;;;4884379;29;20263;-93